Edmund, South Carolina
Current Conditions -  °F | °C
As of 6:56 AM on Sunday 25 Jan 2015 (Local Time) from KCAE Reporting Station
Clear Clear  
Wind Chill: 24°   Ceiling: Unl
Heat Index: 29°   Visibility: 10mi
Dew Point: 26°   Wind: 5mph
Humidity: 89%   Direction: 230°SW
Pressure: 29.98"   Gusts: NA
Location:  33.9903°N, 81.2681°W
Report Text: KCAE 251156Z 23004KT 10SM CLR M02/M03 A2998 RMK AO2 SLP152 T10171033 10050 21017 53016 $
Loading
Personal Weather Stations






























Interactive Weather Map New forecast layout! Learn more

10-Day Weather Forecast

Advertisements
Track Severe Weather on mobile